Time;durP1;ratioP1;P1;durP2;ratioP2;P2;SDS_P1;SDS_P2;PMS_P1;PMS_P2;Temp;Humidity;BMP_temperature;BMP_pressure;BME280_temperature;BME280_humidity;BME280_pressure;Samples;Min_cycle;Max_cycle;Signal;HPM_P1;HPM_P2
2022/09/05 00:00:23;;;;;;;5.07;2.72;;;;;;;;;;10529017;28;20036;-73
2022/09/05 00:05:36;;;;;;;5.10;2.50;;;;;;;;;;10526486;28;20199;-73
2022/09/05 00:11:05;;;;;;;4.22;2.38;;;;;;;;;;10530971;28;20149;-74
2022/09/05 00:16:41;;;;;;;4.45;2.47;;;;;;;;;;10523527;28;20040;-74
2022/09/05 00:21:51;;;;;;;3.95;2.50;;;;;;;;;;10526994;28;20043;-74
2022/09/05 00:27:17;;;;;;;8.10;2.67;;;;;;;;;;10512255;28;20032;-74
2022/09/05 00:32:24;;;;;;;7.25;2.80;;;;;;;;;;10525669;28;20054;-74
2022/09/05 00:37:31;;;;;;;5.15;2.88;;;;;;;;;;10529046;28;20128;-74
2022/09/05 00:42:45;;;;;;;4.20;2.55;;;;;;;;;;10503165;28;20498;-74
2022/09/05 00:47:52;;;;;;;5.07;2.75;;;;;;;;;;10521676;28;20072;-74
2022/09/05 00:52:57;;;;;;;5.40;3.05;;;;;;;;;;10528793;28;20101;-75
2022/09/05 00:58:17;;;;;;;4.38;2.35;;;;;;;;;;10528934;28;20035;-75
2022/09/05 01:03:32;;;;;;;4.68;2.78;;;;;;;;;;10520048;28;20115;-72
2022/09/05 01:08:46;;;;;;;5.10;2.90;;;;;;;;;;10527854;28;20123;-73
2022/09/05 01:13:52;;;;;;;5.63;2.47;;;;;;;;;;10530036;28;20538;-73
2022/09/05 01:19:00;;;;;;;3.95;2.13;;;;;;;;;;10526834;28;20060;-74
2022/09/05 01:24:08;;;;;;;5.22;2.55;;;;;;;;;;10526999;28;20043;-73
2022/09/05 01:29:17;;;;;;;5.47;2.75;;;;;;;;;;10522559;28;20051;-74
2022/09/05 01:34:24;;;;;;;4.97;2.80;;;;;;;;;;10526162;28;20142;-74
2022/09/05 01:39:41;;;;;;;5.28;2.70;;;;;;;;;;10527854;28;20508;-74
2022/09/05 01:45:08;;;;;;;6.72;2.90;;;;;;;;;;10528290;28;20044;-74
2022/09/05 01:50:17;;;;;;;6.57;2.90;;;;;;;;;;10527287;28;20129;-74
2022/09/05 01:55:25;;;;;;;5.28;2.95;;;;;;;;;;10526663;28;20050;-74
2022/09/05 02:00:34;;;;;;;6.25;2.90;;;;;;;;;;10528629;28;20051;-74
2022/09/05 02:05:54;;;;;;;7.95;3.30;;;;;;;;;;10509640;28;20131;-74
2022/09/05 02:11:03;;;;;;;6.38;3.38;;;;;;;;;;10521822;28;20123;-74
2022/09/05 02:16:12;;;;;;;7.30;3.53;;;;;;;;;;10527011;28;20125;-74
2022/09/05 02:21:19;;;;;;;5.65;3.25;;;;;;;;;;10527848;28;20037;-74
2022/09/05 02:26:26;;;;;;;7.00;3.70;;;;;;;;;;10525018;28;20044;-74
2022/09/05 02:31:34;;;;;;;8.25;3.47;;;;;;;;;;10501882;28;20032;-74
2022/09/05 02:36:41;;;;;;;6.55;3.40;;;;;;;;;;10534124;28;20440;-75
2022/09/05 02:41:47;;;;;;;7.70;3.92;;;;;;;;;;10522391;28;20086;-74
2022/09/05 02:47:15;;;;;;;4.85;3.30;;;;;;;;;;10525573;28;20043;-74
2022/09/05 02:52:19;;;;;;;8.00;4.00;;;;;;;;;;10524143;28;20158;-73
2022/09/05 02:57:46;;;;;;;7.03;3.65;;;;;;;;;;10527332;28;20036;-73
2022/09/05 03:03:19;;;;;;;6.50;3.40;;;;;;;;;;10523301;28;20036;-74
2022/09/05 03:08:26;;;;;;;10.00;4.00;;;;;;;;;;10510911;28;20131;-75
2022/09/05 03:13:40;;;;;;;5.78;2.72;;;;;;;;;;10529999;28;20131;-75
2022/09/05 03:19:10;;;;;;;6.32;3.53;;;;;;;;;;10530420;28;20048;-74
2022/09/05 03:24:31;;;;;;;6.22;3.42;;;;;;;;;;10493115;28;20052;-73
2022/09/05 03:29:46;;;;;;;5.03;3.10;;;;;;;;;;10529166;28;20064;-74
2022/09/05 03:35:03;;;;;;;5.70;2.97;;;;;;;;;;10512666;28;20480;-75
2022/09/05 03:40:25;;;;;;;7.25;2.95;;;;;;;;;;10517681;28;20120;-75
2022/09/05 03:45:36;;;;;;;6.53;3.13;;;;;;;;;;10519733;28;20127;-74
2022/09/05 03:50:45;;;;;;;4.53;2.72;;;;;;;;;;10532370;28;20040;-73
2022/09/05 03:56:27;;;;;;;5.63;3.10;;;;;;;;;;10451335;28;20041;-74
2022/09/05 04:01:52;;;;;;;6.03;3.08;;;;;;;;;;10446733;28;20465;-74
2022/09/05 04:07:18;;;;;;;7.00;2.97;;;;;;;;;;10463532;28;20044;-74
2022/09/05 04:12:47;;;;;;;7.35;2.95;;;;;;;;;;10447940;28;20679;-73
2022/09/05 04:17:54;;;;;;;4.97;2.80;;;;;;;;;;10447350;28;20426;-74
2022/09/05 04:23:14;;;;;;;6.80;2.78;;;;;;;;;;10443744;28;20541;-74
2022/09/05 04:28:21;;;;;;;6.28;3.40;;;;;;;;;;10447982;28;20083;-74
2022/09/05 04:33:29;;;;;;;5.55;2.80;;;;;;;;;;10445297;28;20461;-74
2022/09/05 04:38:38;;;;;;;;;;;;;;;;;;10446429;28;20064;-74
2022/09/05 04:43:45;;;;;;;5.13;2.33;;;;;;;;;;10445598;28;20028;-74
2022/09/05 04:48:55;;;;;;;5.25;2.80;;;;;;;;;;10461300;28;20053;-74
2022/09/05 04:54:14;;;;;;;5.25;2.90;;;;;;;;;;10506958;28;20130;-75
2022/09/05 04:59:24;;;;;;;7.72;2.92;;;;;;;;;;10517277;28;20335;-75
2022/09/05 05:04:49;;;;;;;5.88;3.38;;;;;;;;;;10529046;28;20171;-74
2022/09/05 05:10:19;;;;;;;6.20;2.85;;;;;;;;;;10526359;28;20568;-74
2022/09/05 05:15:45;;;;;;;5.07;2.65;;;;;;;;;;10525098;28;20058;-74
2022/09/05 05:21:13;;;;;;;5.00;3.03;;;;;;;;;;10527873;28;20042;-74
2022/09/05 05:26:21;;;;;;;5.40;2.90;;;;;;;;;;10507265;28;20043;-75
2022/09/05 05:31:26;;;;;;;5.63;2.97;;;;;;;;;;10514871;28;20128;-74
2022/09/05 05:36:32;;;;;;;9.07;3.47;;;;;;;;;;10526078;28;20059;-75
2022/09/05 05:41:39;;;;;;;7.45;3.58;;;;;;;;;;10527321;28;20564;-74
2022/09/05 05:46:45;;;;;;;7.72;3.60;;;;;;;;;;10526381;28;20143;-75
2022/09/05 05:51:53;;;;;;;5.85;3.00;;;;;;;;;;10526110;28;20039;-75
2022/09/05 05:57:19;;;;;;;5.03;3.05;;;;;;;;;;10527663;28;20044;-75
2022/09/05 06:02:40;;;;;;;7.25;3.70;;;;;;;;;;10517016;28;20068;-75
2022/09/05 06:07:51;;;;;;;5.55;3.08;;;;;;;;;;10526122;28;20504;-74
2022/09/05 06:13:35;;;;;;;10.35;2.90;;;;;;;;;;10523273;28;20408;-74
2022/09/05 06:18:58;;;;;;;;;;;;;;;;;;10505428;28;20073;-75
2022/09/05 06:24:17;;;;;;;7.80;3.03;;;;;;;;;;10519849;28;19926;-75
2022/09/05 06:29:30;;;;;;;7.82;3.60;;;;;;;;;;10526191;28;20397;-75
2022/09/05 06:34:56;;;;;;;6.22;2.90;;;;;;;;;;10523876;28;20035;-76
2022/09/05 06:40:08;;;;;;;4.25;2.58;;;;;;;;;;10531337;28;20120;-75
2022/09/05 06:45:26;;;;;;;5.97;2.78;;;;;;;;;;10529572;28;20513;-75
2022/09/05 06:50:37;;;;;;;7.40;2.60;;;;;;;;;;10535176;28;20083;-75
2022/09/05 06:56:06;;;;;;;5.53;2.47;;;;;;;;;;10510025;28;20066;-75
2022/09/05 07:01:09;;;;;;;5.18;2.63;;;;;;;;;;10515962;28;20472;-77
2022/09/05 07:06:18;;;;;;;6.22;2.63;;;;;;;;;;10533012;28;20139;-76
2022/09/05 07:11:25;;;;;;;4.30;2.80;;;;;;;;;;10522273;28;20042;-75
2022/09/05 07:16:36;;;;;;;4.03;2.22;;;;;;;;;;10509035;28;20048;-76
2022/09/05 07:21:45;;;;;;;3.95;2.47;;;;;;;;;;10522485;28;20539;-75
2022/09/05 07:26:49;;;;;;;4.13;2.40;;;;;;;;;;10523461;28;20192;-76
2022/09/05 07:31:58;;;;;;;4.60;2.70;;;;;;;;;;10525710;28;20047;-76
2022/09/05 07:37:05;;;;;;;5.15;2.97;;;;;;;;;;10524721;28;20054;-76
2022/09/05 07:42:21;;;;;;;4.05;2.90;;;;;;;;;;10518712;28;20354;-76
2022/09/05 07:47:27;;;;;;;3.67;2.47;;;;;;;;;;10519824;28;20047;-76
2022/09/05 07:52:29;;;;;;;3.10;2.70;;;;;;;;;;10521913;28;20604;-75
2022/09/05 07:57:58;;;;;;;6.43;2.88;;;;;;;;;;10518965;28;20059;-75
2022/09/05 08:03:08;;;;;;;6.57;2.70;;;;;;;;;;10516138;28;20374;-76
2022/09/05 08:08:13;;;;;;;6.97;2.70;;;;;;;;;;10524985;28;20039;-77
2022/09/05 08:13:19;;;;;;;5.93;3.00;;;;;;;;;;10521617;28;20040;-76
2022/09/05 08:18:35;;;;;;;2.95;2.40;;;;;;;;;;10519877;28;20040;-77
2022/09/05 08:23:50;;;;;;;6.80;2.15;;;;;;;;;;10526988;28;20131;-77
2022/09/05 08:28:59;;;;;;;3.67;2.47;;;;;;;;;;10525962;28;20112;-77
2022/09/05 08:34:02;;;;;;;2.90;2.50;;;;;;;;;;10526575;28;20044;-76
2022/09/05 08:39:09;;;;;;;3.25;2.30;;;;;;;;;;10518565;28;20132;-76
2022/09/05 08:44:21;;;;;;;3.75;2.60;;;;;;;;;;10527166;28;20524;-77
2022/09/05 08:49:51;;;;;;;5.88;2.72;;;;;;;;;;10523134;28;20501;-77
2022/09/05 08:55:01;;;;;;;6.82;2.85;;;;;;;;;;10523883;28;20097;-76
2022/09/05 09:00:14;;;;;;;3.15;2.50;;;;;;;;;;10532384;28;20417;-76
2022/09/05 09:05:46;;;;;;;3.20;2.60;;;;;;;;;;10525011;28;20067;-76
2022/09/05 09:11:11;;;;;;;4.93;2.63;;;;;;;;;;10528785;28;20123;-76
2022/09/05 09:16:24;;;;;;;2.75;2.53;;;;;;;;;;10524488;28;20041;-76
2022/09/05 09:21:38;;;;;;;2.92;2.63;;;;;;;;;;10518168;28;20044;-76
2022/09/05 09:26:51;;;;;;;4.65;2.97;;;;;;;;;;10521515;28;20449;-76
2022/09/05 09:32:01;;;;;;;4.13;2.90;;;;;;;;;;10517846;28;20481;-77
2022/09/05 09:37:30;;;;;;;3.45;3.13;;;;;;;;;;10522999;28;20139;-77
2022/09/05 09:42:55;;;;;;;4.35;2.92;;;;;;;;;;10484276;28;20051;-77
2022/09/05 09:48:04;;;;;;;3.17;2.90;;;;;;;;;;10526108;28;20109;-77
2022/09/05 09:53:28;;;;;;;4.13;2.85;;;;;;;;;;10515530;28;20051;-77
2022/09/05 09:58:53;;;;;;;7.90;3.08;;;;;;;;;;10518704;28;20170;-77
2022/09/05 10:04:07;;;;;;;3.20;2.90;;;;;;;;;;10516672;28;20131;-77
2022/09/05 10:09:40;;;;;;;2.95;2.75;;;;;;;;;;10519224;28;20134;-77
2022/09/05 10:15:09;;;;;;;3.28;3.03;;;;;;;;;;10502229;28;20063;-77
2022/09/05 10:20:57;;;;;;;3.10;2.80;;;;;;;;;;10517377;28;20043;-77
2022/09/05 10:26:47;;;;;;;4.47;3.20;;;;;;;;;;10518003;28;20040;-77
2022/09/05 10:31:55;;;;;;;3.20;2.90;;;;;;;;;;10497345;28;20044;-76
2022/09/05 10:37:19;;;;;;;3.50;3.20;;;;;;;;;;10521317;28;20549;-73
2022/09/05 10:42:28;;;;;;;3.17;2.75;;;;;;;;;;10515187;28;20070;-73
2022/09/05 10:47:35;;;;;;;3.08;2.80;;;;;;;;;;10514494;28;20531;-72
2022/09/05 10:52:42;;;;;;;3.22;2.95;;;;;;;;;;10509833;28;20048;-73
2022/09/05 10:57:53;;;;;;;3.00;2.80;;;;;;;;;;10521543;28;20044;-73
2022/09/05 11:02:57;;;;;;;2.92;2.67;;;;;;;;;;10512570;28;20414;-73
2022/09/05 11:08:07;;;;;;;5.05;3.30;;;;;;;;;;10515766;28;20044;-73
2022/09/05 11:13:15;;;;;;;4.10;2.75;;;;;;;;;;10516331;28;20115;-72
2022/09/05 11:18:22;;;;;;;3.03;2.40;;;;;;;;;;10517195;28;20154;-72
2022/09/05 11:23:39;;;;;;;3.15;2.60;;;;;;;;;;10515158;28;20036;-73
2022/09/05 11:28:49;;;;;;;3.50;3.20;;;;;;;;;;10513439;28;20111;-72
2022/09/05 11:34:14;;;;;;;3.97;2.50;;;;;;;;;;10524404;28;20479;-72
2022/09/05 11:39:55;;;;;;;2.53;2.33;;;;;;;;;;10522447;28;20044;-73
2022/09/05 11:45:24;;;;;;;3.40;2.65;;;;;;;;;;10524478;28;20050;-72
2022/09/05 11:50:47;;;;;;;5.50;2.70;;;;;;;;;;10522512;28;20043;-73
2022/09/05 11:56:07;;;;;;;2.50;2.30;;;;;;;;;;10520169;28;20240;-72
2022/09/05 12:01:15;;;;;;;3.65;2.50;;;;;;;;;;10523092;28;20051;-73
2022/09/05 12:07:04;;;;;;;2.60;2.40;;;;;;;;;;10525842;28;20043;-72
2022/09/05 12:12:34;;;;;;;2.58;2.38;;;;;;;;;;10499365;28;20304;-72
2022/09/05 12:17:50;;;;;;;3.65;3.10;;;;;;;;;;10519595;28;20051;-72
2022/09/05 12:22:56;;;;;;;3.70;2.70;;;;;;;;;;10521623;28;20037;-72
2022/09/05 12:28:05;;;;;;;3.67;2.40;;;;;;;;;;10509378;28;20040;-72
2022/09/05 12:33:31;;;;;;;5.82;2.90;;;;;;;;;;10505743;28;20403;-72
2022/09/05 12:39:00;;;;;;;3.58;2.63;;;;;;;;;;10521214;28;20036;-72
2022/09/05 12:44:25;;;;;;;3.63;2.40;;;;;;;;;;10525563;28;20279;-72
2022/09/05 12:49:49;;;;;;;5.88;2.80;;;;;;;;;;10523226;28;20134;-72
2022/09/05 12:54:58;;;;;;;2.50;2.30;;;;;;;;;;10520155;28;20478;-71
2022/09/05 13:00:04;;;;;;;3.50;2.55;;;;;;;;;;10513880;28;20482;-72
2022/09/05 13:05:44;;;;;;;4.05;2.40;;;;;;;;;;10510319;28;20524;-72
2022/09/05 13:10:51;;;;;;;4.22;2.28;;;;;;;;;;10513628;28;20055;-72
2022/09/05 13:16:21;;;;;;;2.72;2.10;;;;;;;;;;10521042;28;20128;-72
2022/09/05 13:21:28;;;;;;;4.37;2.33;;;;;;;;;;10519973;28;20046;-72
2022/09/05 13:26:35;;;;;;;3.05;2.67;;;;;;;;;;10519709;28;20412;-72
2022/09/05 13:32:09;;;;;;;4.47;2.42;;;;;;;;;;10522165;28;20477;-73
2022/09/05 13:37:35;;;;;;;2.78;2.17;;;;;;;;;;10495609;28;20044;-71
2022/09/05 13:43:09;;;;;;;3.50;2.10;;;;;;;;;;10499401;28;20137;-71
2022/09/05 13:48:26;;;;;;;3.95;2.42;;;;;;;;;;10496381;28;20040;-77
2022/09/05 13:53:34;;;;;;;5.80;3.38;;;;;;;;;;10516942;28;20485;-77
2022/09/05 13:58:41;;;;;;;3.25;2.65;;;;;;;;;;10520746;28;20044;-76
2022/09/05 14:04:17;;;;;;;2.67;2.25;;;;;;;;;;10518999;28;20059;-76
2022/09/05 14:10:10;;;;;;;2.90;2.47;;;;;;;;;;10512163;28;20122;-77
2022/09/05 14:15:19;;;;;;;2.60;2.30;;;;;;;;;;10502043;28;20043;-77
2022/09/05 14:25:56;;;;;;;5.53;2.38;;;;;;;;;;10513021;28;20047;-77
2022/09/05 14:31:07;;;;;;;4.65;2.40;;;;;;;;;;10525168;28;20126;-77
2022/09/05 14:36:33;;;;;;;5.47;2.50;;;;;;;;;;10523151;28;20164;-77
2022/09/05 14:42:11;;;;;;;2.20;2.00;;;;;;;;;;10520219;28;20036;-77
2022/09/05 14:47:27;;;;;;;4.05;2.30;;;;;;;;;;10522661;28;20056;-77
2022/09/05 14:52:37;;;;;;;4.25;2.08;;;;;;;;;;10524630;28;20466;-77
2022/09/05 14:57:46;;;;;;;3.80;2.25;;;;;;;;;;10527105;28;20511;-77
2022/09/05 15:03:13;;;;;;;3.35;2.38;;;;;;;;;;10522977;28;20032;-76
2022/09/05 15:08:22;;;;;;;3.90;2.40;;;;;;;;;;10514290;28;20614;-76
2022/09/05 15:13:51;;;;;;;5.55;2.60;;;;;;;;;;10524806;28;20132;-76
2022/09/05 15:18:57;;;;;;;2.63;2.10;;;;;;;;;;10510846;28;20121;-76
2022/09/05 15:24:01;;;;;;;4.57;2.92;;;;;;;;;;10530703;28;20032;-76
2022/09/05 15:29:11;;;;;;;5.10;3.22;;;;;;;;;;10530364;28;20047;-76
2022/09/05 15:34:24;;;;;;;4.00;2.30;;;;;;;;;;10531778;28;20085;-76
2022/09/05 15:39:30;;;;;;;2.83;2.10;;;;;;;;;;10526465;28;20039;-76
2022/09/05 15:44:33;;;;;;;3.83;2.03;;;;;;;;;;10524231;28;20370;-76
2022/09/05 15:49:58;;;;;;;4.50;2.10;;;;;;;;;;10487445;28;20117;-76
2022/09/05 15:55:04;;;;;;;2.40;1.90;;;;;;;;;;10492120;28;20040;-76
2022/09/05 16:00:08;;;;;;;2.58;1.83;;;;;;;;;;10488525;28;20510;-75
2022/09/05 16:05:15;;;;;;;2.75;2.10;;;;;;;;;;10471554;28;20083;-76
2022/09/05 16:10:38;;;;;;;2.72;2.00;;;;;;;;;;10486995;28;20048;-76
2022/09/05 16:16:00;;;;;;;3.75;1.88;;;;;;;;;;10483695;28;20045;-76
2022/09/05 16:21:27;;;;;;;3.92;2.00;;;;;;;;;;10480926;28;20127;-76
2022/09/05 16:26:52;;;;;;;6.22;2.30;;;;;;;;;;10483850;28;20406;-76
2022/09/05 16:32:13;;;;;;;3.25;1.70;;;;;;;;;;10484995;28;20063;-76
2022/09/05 16:37:20;;;;;;;5.43;2.20;;;;;;;;;;10482212;28;20048;-77
2022/09/05 16:42:28;;;;;;;4.00;2.10;;;;;;;;;;10485952;28;20044;-77
2022/09/05 16:47:53;;;;;;;3.35;2.10;;;;;;;;;;10482634;28;20276;-77
2022/09/05 16:53:04;;;;;;;3.40;2.15;;;;;;;;;;10483520;28;20417;-77
2022/09/05 16:58:28;;;;;;;3.40;2.13;;;;;;;;;;10467137;28;20059;-76
2022/09/05 17:03:35;;;;;;;4.28;2.25;;;;;;;;;;10481818;28;20063;-76
2022/09/05 17:08:39;;;;;;;4.40;2.10;;;;;;;;;;10488985;28;20120;-76
2022/09/05 17:13:45;;;;;;;2.92;1.92;;;;;;;;;;10476443;28;20094;-76
2022/09/05 17:18:51;;;;;;;4.10;2.47;;;;;;;;;;10482057;28;20040;-76
2022/09/05 17:23:56;;;;;;;5.22;2.67;;;;;;;;;;10485765;28;20175;-75
2022/09/05 17:29:39;;;;;;;4.75;2.53;;;;;;;;;;10484323;28;20040;-77
2022/09/05 17:35:20;;;;;;;6.05;2.33;;;;;;;;;;10482824;28;20036;-76
2022/09/05 17:40:36;;;;;;;7.07;2.75;;;;;;;;;;10462019;28;20068;-74
2022/09/05 17:45:49;;;;;;;5.28;2.20;;;;;;;;;;10478331;28;20127;-75
2022/09/05 17:50:58;;;;;;;7.60;2.78;;;;;;;;;;10481439;28;20044;-73
2022/09/05 17:56:11;;;;;;;8.15;2.90;;;;;;;;;;10479552;28;20036;-73
2022/09/05 18:01:15;;;;;;;5.75;3.00;;;;;;;;;;10465972;28;20132;-74
2022/09/05 18:06:31;;;;;;;8.77;3.63;;;;;;;;;;10466745;28;20040;-72
2022/09/05 18:11:38;;;;;;;5.95;2.90;;;;;;;;;;10483756;28;20133;-75
2022/09/05 18:16:48;;;;;;;20.63;4.20;;;;;;;;;;10478239;28;20041;-73
2022/09/05 18:22:19;;;;;;;5.10;3.28;;;;;;;;;;10461977;28;20040;-73
2022/09/05 18:27:31;;;;;;;8.85;3.70;;;;;;;;;;10486295;28;20028;-75
2022/09/05 18:33:08;;;;;;;13.80;6.50;;;;;;;;;;10483044;28;20072;-74
2022/09/05 18:38:30;;;;;;;10.57;5.38;;;;;;;;;;10477826;28;20055;-73
2022/09/05 18:43:57;;;;;;;6.22;3.30;;;;;;;;;;10494247;28;20064;-73
2022/09/05 18:49:22;;;;;;;7.65;3.90;;;;;;;;;;10467385;28;20123;-74
2022/09/05 18:54:45;;;;;;;7.28;3.60;;;;;;;;;;10488063;28;20555;-72
2022/09/05 19:00:12;;;;;;;10.40;4.93;;;;;;;;;;10485878;28;20509;-72
2022/09/05 19:05:19;;;;;;;7.70;4.63;;;;;;;;;;10488086;28;20116;-72
2022/09/05 19:10:31;;;;;;;15.82;8.18;;;;;;;;;;10487938;28;20464;-72
2022/09/05 19:15:45;;;;;;;11.73;6.10;;;;;;;;;;10482233;28;20033;-74
2022/09/05 19:21:04;;;;;;;19.92;11.13;;;;;;;;;;10492469;28;20048;-73
2022/09/05 19:26:13;;;;;;;9.52;5.43;;;;;;;;;;10491882;28;20086;-77
2022/09/05 19:31:20;;;;;;;11.40;6.50;;;;;;;;;;10488456;28;20076;-73
2022/09/05 19:36:48;;;;;;;10.95;4.88;;;;;;;;;;10491751;28;20448;-74
2022/09/05 19:42:13;;;;;;;7.18;4.10;;;;;;;;;;10492149;28;20444;-74
2022/09/05 19:47:37;;;;;;;8.95;4.18;;;;;;;;;;10488693;28;20043;-74
2022/09/05 19:53:04;;;;;;;11.10;6.43;;;;;;;;;;10483349;28;20190;-74
2022/09/05 19:58:09;;;;;;;8.35;4.25;;;;;;;;;;10486449;28;20127;-71
2022/09/05 20:03:23;;;;;;;16.75;9.23;;;;;;;;;;10487305;28;20513;-74
2022/09/05 20:08:29;;;;;;;11.20;4.47;;;;;;;;;;10490465;28;20068;-75
2022/09/05 20:13:32;;;;;;;7.65;4.00;;;;;;;;;;10488185;28;20033;-74
2022/09/05 20:18:39;;;;;;;15.35;8.15;;;;;;;;;;10483263;28;20072;-74
2022/09/05 20:23:43;;;;;;;7.68;4.40;;;;;;;;;;10486127;28;20071;-73
2022/09/05 20:28:47;;;;;;;11.05;4.72;;;;;;;;;;10489906;28;20052;-73
2022/09/05 20:33:59;;;;;;;15.75;8.32;;;;;;;;;;10487770;28;20051;-74
2022/09/05 20:39:06;;;;;;;13.57;8.38;;;;;;;;;;10484581;28;20045;-76
2022/09/05 20:44:39;;;;;;;10.23;4.72;;;;;;;;;;10487361;28;20036;-75
2022/09/05 20:49:46;;;;;;;19.38;9.38;;;;;;;;;;10491943;28;20098;-75
2022/09/05 20:55:14;;;;;;;10.40;5.30;;;;;;;;;;10485380;28;20048;-76
2022/09/05 21:00:39;;;;;;;8.52;3.80;;;;;;;;;;10487866;28;20051;-73
2022/09/05 21:06:11;;;;;;;6.25;3.95;;;;;;;;;;10484759;28;20365;-74
2022/09/05 21:11:15;;;;;;;6.32;3.60;;;;;;;;;;10469046;28;20581;-74
2022/09/05 21:16:20;;;;;;;8.48;4.28;;;;;;;;;;10467597;28;20033;-74
2022/09/05 21:21:25;;;;;;;6.80;4.00;;;;;;;;;;10482600;28;20044;-73
2022/09/05 21:26:31;;;;;;;8.32;4.03;;;;;;;;;;10479169;28;20037;-74
2022/09/05 21:31:43;;;;;;;7.50;4.13;;;;;;;;;;10478415;28;20053;-74
2022/09/05 21:36:47;;;;;;;6.93;4.30;;;;;;;;;;10485200;28;20040;-73
2022/09/05 21:42:08;;;;;;;7.93;3.97;;;;;;;;;;10478328;28;20465;-76
2022/09/05 21:47:31;;;;;;;7.55;4.07;;;;;;;;;;10479224;28;20044;-73
2022/09/05 21:52:55;;;;;;;7.32;4.40;;;;;;;;;;10481925;28;20044;-74
2022/09/05 21:58:18;;;;;;;6.55;3.95;;;;;;;;;;10485958;28;20132;-74
2022/09/05 22:03:41;;;;;;;8.93;3.90;;;;;;;;;;10463901;28;20039;-74
2022/09/05 22:08:45;;;;;;;9.30;3.93;;;;;;;;;;10476446;28;20033;-73
2022/09/05 22:14:08;;;;;;;6.32;3.50;;;;;;;;;;10479553;28;20386;-74
2022/09/05 22:19:11;;;;;;;12.77;4.30;;;;;;;;;;10482568;28;20462;-74
2022/09/05 22:24:16;;;;;;;4.68;3.22;;;;;;;;;;10482057;28;20553;-74
2022/09/05 22:29:19;;;;;;;6.55;3.28;;;;;;;;;;10481159;28;20553;-74
2022/09/05 22:34:21;;;;;;;6.13;3.58;;;;;;;;;;10481016;28;20485;-74
2022/09/05 22:39:26;;;;;;;6.28;3.70;;;;;;;;;;10479490;28;20068;-75
2022/09/05 22:44:40;;;;;;;7.05;3.55;;;;;;;;;;10477623;28;20055;-74
2022/09/05 22:49:42;;;;;;;8.05;3.75;;;;;;;;;;10481699;28;20041;-74
2022/09/05 22:54:47;;;;;;;6.03;3.70;;;;;;;;;;10480050;28;20062;-75
2022/09/05 22:59:50;;;;;;;5.90;3.90;;;;;;;;;;10482601;28;20068;-76
2022/09/05 23:04:53;;;;;;;6.60;3.95;;;;;;;;;;10476232;28;20474;-75
2022/09/05 23:09:57;;;;;;;7.00;3.73;;;;;;;;;;10476773;28;20353;-74
2022/09/05 23:15:00;;;;;;;7.43;4.05;;;;;;;;;;10476747;28;20496;-74
2022/09/05 23:20:04;;;;;;;6.60;3.73;;;;;;;;;;10484741;28;20040;-75
2022/09/05 23:25:08;;;;;;;6.97;3.90;;;;;;;;;;10480532;28;20052;-74
2022/09/05 23:30:11;;;;;;;7.55;4.18;;;;;;;;;;10487291;28;20052;-75
2022/09/05 23:35:14;;;;;;;8.57;4.30;;;;;;;;;;10490131;28;20048;-74
2022/09/05 23:40:20;;;;;;;7.57;3.95;;;;;;;;;;10487163;28;20083;-74
2022/09/05 23:45:23;;;;;;;6.10;3.80;;;;;;;;;;10486390;28;20095;-75
2022/09/05 23:50:27;;;;;;;10.68;4.13;;;;;;;;;;10489509;28;20071;-75
2022/09/05 23:55:31;;;;;;;7.57;3.90;;;;;;;;;;10489414;28;20108;-75
